createdAt,value
2018-09-20T00:01:08.274Z,16.93
2018-09-20T00:03:36.761Z,14.43
2018-09-20T00:06:05.211Z,17.57
2018-09-20T00:08:33.717Z,12.40
2018-09-20T00:11:02.181Z,13.77
2018-09-20T00:13:30.665Z,15.73
2018-09-20T00:15:59.129Z,13.30
2018-09-20T00:18:27.594Z,17.60
2018-09-20T00:20:56.092Z,16.10
2018-09-20T00:23:24.533Z,13.43
2018-09-20T00:25:52.991Z,18.60
2018-09-20T00:28:21.480Z,14.13
2018-09-20T00:30:50.259Z,14.03
2018-09-20T00:33:18.736Z,18.73
2018-09-20T00:35:47.462Z,14.87
2018-09-20T00:38:15.939Z,18.43
2018-09-20T00:40:44.496Z,14.50
2018-09-20T00:43:12.960Z,15.70
2018-09-20T00:45:41.425Z,14.53
2018-09-20T00:48:09.881Z,16.23
2018-09-20T00:50:38.386Z,18.50
2018-09-20T00:53:07.335Z,15.90
2018-09-20T00:55:35.777Z,17.23
2018-09-20T00:58:04.252Z,13.00
2018-09-20T01:00:32.764Z,21.40
2018-09-20T01:03:01.328Z,19.73
2018-09-20T01:05:29.837Z,19.23
2018-09-20T01:07:58.304Z,15.40
2018-09-20T01:10:26.792Z,16.10
2018-09-20T01:12:55.465Z,18.00
2018-09-20T01:15:23.907Z,16.40
2018-09-20T01:17:52.433Z,18.03
2018-09-20T01:20:20.886Z,17.97
2018-09-20T01:22:49.349Z,19.97
2018-09-20T01:25:17.858Z,15.97
2018-09-20T01:27:46.459Z,16.73
2018-09-20T01:30:14.999Z,21.20
2018-09-20T01:32:43.580Z,17.20
2018-09-20T01:35:12.069Z,16.17
2018-09-20T01:37:40.547Z,17.50
2018-09-20T01:40:09.038Z,22.17
2018-09-20T01:42:37.483Z,13.87
2018-09-20T01:45:06.425Z,18.23
2018-09-20T01:47:34.842Z,20.37
2018-09-20T01:50:10.190Z,18.67
2018-09-20T01:52:38.664Z,17.73
2018-09-20T01:55:07.189Z,23.27
2018-09-20T01:57:35.729Z,18.03
2018-09-20T02:00:04.362Z,21.67
2018-09-20T02:02:32.804Z,23.13
2018-09-20T02:05:01.273Z,23.27
2018-09-20T02:07:29.694Z,16.07
2018-09-20T02:09:58.339Z,16.80
2018-09-20T02:12:26.844Z,18.13
2018-09-20T02:14:55.349Z,19.07
2018-09-20T02:17:23.818Z,19.00
2018-09-20T02:19:52.269Z,16.97
2018-09-20T02:22:20.770Z,18.47
2018-09-20T02:24:49.338Z,17.47
2018-09-20T02:27:17.863Z,12.70
2018-09-20T02:29:46.293Z,18.10
2018-09-20T02:32:14.721Z,18.63
2018-09-20T02:34:43.249Z,14.33
2018-09-20T02:37:11.806Z,17.87
2018-09-20T02:39:40.281Z,16.97
2018-09-20T02:42:08.761Z,18.57
2018-09-20T02:44:37.276Z,20.73
2018-09-20T02:47:05.882Z,16.53
2018-09-20T02:49:34.324Z,21.00
2018-09-20T02:52:02.846Z,16.67
2018-09-20T02:54:31.381Z,14.83
2018-09-20T02:56:59.997Z,13.53
2018-09-20T02:59:28.504Z,11.47
2018-09-20T03:01:56.984Z,16.13
2018-09-20T03:04:25.398Z,13.60
2018-09-20T03:06:53.841Z,17.70
2018-09-20T03:09:22.410Z,16.63
2018-09-20T03:11:50.848Z,20.43
2018-09-20T03:14:19.293Z,17.30
2018-09-20T03:16:47.766Z,16.63
2018-09-20T03:19:16.412Z,17.97
2018-09-20T03:21:44.882Z,18.97
2018-09-20T03:24:13.370Z,16.50
2018-09-20T03:26:41.930Z,17.03
2018-09-20T03:29:10.417Z,16.47
2018-09-20T03:31:38.902Z,20.30
2018-09-20T03:34:07.436Z,20.50
2018-09-20T03:36:35.909Z,18.30
2018-09-20T03:39:06.885Z,15.50
2018-09-20T03:41:35.545Z,18.93
2018-09-20T03:44:03.985Z,15.73
2018-09-20T03:46:32.608Z,12.40
2018-09-20T03:49:01.066Z,14.17
2018-09-20T03:51:29.541Z,19.67
2018-09-20T03:53:58.104Z,18.10
2018-09-20T03:56:26.565Z,12.63
2018-09-20T03:58:55.216Z,15.10
2018-09-20T04:01:23.696Z,15.90
2018-09-20T04:03:52.182Z,12.70
2018-09-20T04:06:20.935Z,19.03
2018-09-20T04:08:49.432Z,13.57
2018-09-20T04:11:17.896Z,14.17
2018-09-20T04:13:46.775Z,14.80
2018-09-20T04:16:17.033Z,15.67
2018-09-20T04:18:46.015Z,17.07
2018-09-20T04:21:18.703Z,14.93
2018-09-20T04:23:49.709Z,16.10
2018-09-20T04:26:19.570Z,15.73
2018-09-20T04:28:50.397Z,21.43
2018-09-20T04:31:19.293Z,18.87
2018-09-20T04:33:47.942Z,18.53
2018-09-20T04:36:17.474Z,15.40
2018-09-20T04:38:47.634Z,13.97
2018-09-20T04:41:16.304Z,15.00
2018-09-20T04:43:44.874Z,16.60
2018-09-20T04:46:14.250Z,16.17
2018-09-20T04:49:15.714Z,18.00
2018-09-20T04:51:44.282Z,16.63
2018-09-20T04:54:12.885Z,14.73
2018-09-20T04:56:41.593Z,16.13
2018-09-20T04:59:10.098Z,16.07
2018-09-20T05:01:38.619Z,14.20
2018-09-20T05:04:07.129Z,15.57
2018-09-20T05:06:35.725Z,15.87
2018-09-20T05:09:07.167Z,13.57
2018-09-20T05:11:35.716Z,17.57
2018-09-20T05:14:04.404Z,20.37
2018-09-20T05:16:33.352Z,17.77
2018-09-20T05:19:01.915Z,16.27
2018-09-20T05:21:30.515Z,15.40
2018-09-20T05:23:59.261Z,16.80
2018-09-20T05:26:27.680Z,14.70
2018-09-20T05:28:56.300Z,16.07
2018-09-20T05:31:24.915Z,18.13
2018-09-20T05:33:54.902Z,12.30
2018-09-20T05:36:24.156Z,19.33
2018-09-20T05:38:53.032Z,24.03
2018-09-20T05:41:22.341Z,15.90
2018-09-20T05:43:51.503Z,20.17
2018-09-20T05:46:20.711Z,14.40
2018-09-20T05:48:49.535Z,17.57
2018-09-20T05:51:18.449Z,19.70
2018-09-20T05:53:47.248Z,19.80
2018-09-20T05:56:15.949Z,13.47
2018-09-20T05:58:44.706Z,23.67
2018-09-20T06:01:13.517Z,15.27
2018-09-20T06:03:42.257Z,15.60
2018-09-20T06:06:11.046Z,12.87
2018-09-20T06:08:39.912Z,15.13
2018-09-20T06:11:08.411Z,17.60
2018-09-20T06:13:37.241Z,13.47
2018-09-20T06:16:05.965Z,12.80
2018-09-20T06:18:34.617Z,16.63
2018-09-20T06:21:03.253Z,16.63
2018-09-20T06:23:31.767Z,14.13
2018-09-20T06:26:00.357Z,18.03
2018-09-20T06:28:28.886Z,15.20
2018-09-20T06:30:57.631Z,13.87
2018-09-20T06:33:26.246Z,16.07
2018-09-20T06:35:54.864Z,17.37
2018-09-20T06:38:23.641Z,15.67
2018-09-20T06:40:52.194Z,18.37
2018-09-20T06:43:20.790Z,18.70
2018-09-20T06:45:49.286Z,18.87
2018-09-20T06:48:18.104Z,13.47
2018-09-20T06:50:46.932Z,17.03
2018-09-20T06:53:15.770Z,16.67
2018-09-20T06:55:44.558Z,11.13
2018-09-20T06:58:13.281Z,12.93
2018-09-20T07:00:41.823Z,12.20
2018-09-20T07:03:10.570Z,14.50
2018-09-20T07:05:39.244Z,16.33
2018-09-20T07:08:08.072Z,15.30
2018-09-20T07:10:36.978Z,15.57
2018-09-20T07:13:07.312Z,12.13
2018-09-20T07:15:36.081Z,10.80
2018-09-20T07:18:04.842Z,14.43
2018-09-20T07:20:33.509Z,16.40
2018-09-20T07:23:02.415Z,11.97
2018-09-20T07:25:31.239Z,16.53
2018-09-20T07:28:00.006Z,13.60
2018-09-20T07:30:29.206Z,14.80
2018-09-20T07:32:58.169Z,19.50
2018-09-20T07:35:27.156Z,15.73
2018-09-20T07:37:55.856Z,13.53
2018-09-20T07:40:24.848Z,15.43
2018-09-20T07:42:53.453Z,17.17
2018-09-20T07:45:22.625Z,16.63
2018-09-20T07:47:51.276Z,11.13
2018-09-20T07:50:19.877Z,13.60
2018-09-20T07:52:48.529Z,10.97
2018-09-20T07:55:17.130Z,14.43
2018-09-20T07:57:45.919Z,15.07
2018-09-20T08:00:14.757Z,11.60
2018-09-20T08:02:43.392Z,8.07
2018-09-20T08:05:12.140Z,15.87
2018-09-20T08:07:40.864Z,15.87
2018-09-20T08:10:09.405Z,14.07
2018-09-20T08:12:38.089Z,15.23
2018-09-20T08:15:06.964Z,15.80
2018-09-20T08:17:35.470Z,13.73
2018-09-20T08:20:04.439Z,14.47
2018-09-20T08:22:33.169Z,10.40
2018-09-20T08:25:02.017Z,14.70
2018-09-20T08:27:30.889Z,14.17
2018-09-20T08:29:59.483Z,13.97
2018-09-20T08:32:28.179Z,13.00
2018-09-20T08:34:57.157Z,12.33
2018-09-20T08:37:26.149Z,16.00
2018-09-20T08:39:54.661Z,11.10
2018-09-20T08:42:23.311Z,13.00
2018-09-20T08:44:51.847Z,11.53
2018-09-20T08:47:20.575Z,11.60
2018-09-20T08:49:49.277Z,18.97
2018-09-20T08:52:17.833Z,10.40
2018-09-20T08:54:46.965Z,14.57
2018-09-20T08:57:15.635Z,15.23
2018-09-20T08:59:44.187Z,13.23
2018-09-20T09:02:12.830Z,20.00
2018-09-20T09:04:41.744Z,13.27
2018-09-20T09:07:10.193Z,11.13
2018-09-20T09:09:39.078Z,10.63
2018-09-20T09:12:07.605Z,11.17
2018-09-20T09:14:36.488Z,9.93
2018-09-20T09:17:05.075Z,8.83
2018-09-20T09:19:33.589Z,10.87
2018-09-20T09:22:02.306Z,13.03
2018-09-20T09:24:31.008Z,13.80
2018-09-20T09:26:59.512Z,6.97
2018-09-20T09:29:28.150Z,8.58
2018-09-20T09:31:56.806Z,9.53
2018-09-20T09:34:25.873Z,8.50
2018-09-20T09:36:54.450Z,13.85
2018-09-20T09:39:23.090Z,9.98
2018-09-20T09:41:51.754Z,13.08
2018-09-20T09:44:22.243Z,8.48
2018-09-20T09:46:50.938Z,9.10
2018-09-20T09:49:19.841Z,11.10
2018-09-20T09:51:48.466Z,12.78
2018-09-20T09:54:17.443Z,11.55
2018-09-20T09:56:45.993Z,11.33
2018-09-20T09:59:14.637Z,12.18
2018-09-20T10:01:43.281Z,9.45
2018-09-20T10:04:11.762Z,9.13
2018-09-20T10:06:40.353Z,8.65
2018-09-20T10:09:10.427Z,10.43
2018-09-20T10:11:39.222Z,11.70
2018-09-20T10:14:08.075Z,7.72
2018-09-20T10:16:36.578Z,9.58
2018-09-20T10:19:05.141Z,12.65
2018-09-20T10:21:33.640Z,10.93
2018-09-20T10:24:02.244Z,10.38
2018-09-20T10:26:30.717Z,9.03
2018-09-20T10:28:59.333Z,9.60
2018-09-20T10:31:28.219Z,7.25
2018-09-20T10:33:56.900Z,8.25
2018-09-20T10:36:25.337Z,6.87
2018-09-20T10:38:54.051Z,7.37
2018-09-20T10:41:22.595Z,8.98
2018-09-20T10:43:51.245Z,6.83
2018-09-20T10:46:20.190Z,7.67
2018-09-20T10:48:48.826Z,7.95
2018-09-20T10:51:17.471Z,9.28
2018-09-20T10:53:46.070Z,6.72
2018-09-20T10:56:14.608Z,8.93
2018-09-20T10:58:43.203Z,8.57
2018-09-20T11:01:11.762Z,11.13
2018-09-20T11:03:40.579Z,12.93
2018-09-20T11:06:09.297Z,10.83
2018-09-20T11:08:38.103Z,7.70
2018-09-20T11:11:07.002Z,14.13
2018-09-20T11:13:35.350Z,8.70
2018-09-20T11:16:04.151Z,9.87
2018-09-20T11:18:32.784Z,8.43
2018-09-20T11:21:01.383Z,11.73
2018-09-20T11:23:29.889Z,9.60
2018-09-20T11:25:58.925Z,7.80
2018-09-20T11:28:27.354Z,9.97
2018-09-20T11:30:56.285Z,10.70
2018-09-20T11:33:25.142Z,14.43
2018-09-20T11:35:53.989Z,7.27
2018-09-20T11:38:22.701Z,10.93
2018-09-20T11:40:51.225Z,8.50
2018-09-20T11:43:19.805Z,9.33
2018-09-20T11:45:49.104Z,9.37
2018-09-20T11:48:17.582Z,7.20
2018-09-20T11:50:46.139Z,8.17
2018-09-20T11:53:14.770Z,11.53
2018-09-20T11:55:43.656Z,9.00
2018-09-20T11:58:12.182Z,7.40
2018-09-20T12:00:40.720Z,11.97
2018-09-20T12:03:09.197Z,15.43
2018-09-20T12:05:37.706Z,10.53
2018-09-20T12:08:06.215Z,10.57
2018-09-20T12:10:34.772Z,8.80
2018-09-20T12:13:03.349Z,7.37
2018-09-20T12:15:32.110Z,10.00
2018-09-20T12:18:00.803Z,10.53
2018-09-20T12:20:29.321Z,7.87
2018-09-20T12:22:57.901Z,9.33
2018-09-20T12:25:26.761Z,8.40
2018-09-20T12:27:55.231Z,12.63
2018-09-20T12:30:23.760Z,11.43
2018-09-20T12:32:52.334Z,8.77
2018-09-20T12:35:20.823Z,23.60
2018-09-20T12:37:49.230Z,39.30
2018-09-20T12:40:17.720Z,86.73
2018-09-20T12:42:46.254Z,131.87
2018-09-20T12:45:14.677Z,18.67
2018-09-20T12:47:43.209Z,18.67
2018-09-20T12:50:11.737Z,12.57
2018-09-20T12:52:40.204Z,58.70
2018-09-20T12:55:08.790Z,19.27
2018-09-20T12:57:37.286Z,44.30
2018-09-20T13:00:07.307Z,6.60
2018-09-20T13:02:35.852Z,11.07
2018-09-20T13:05:04.441Z,9.53
2018-09-20T13:07:33.312Z,11.93
2018-09-20T13:10:01.749Z,8.40
2018-09-20T13:12:30.334Z,7.63
2018-09-20T13:14:59.039Z,9.77
2018-09-20T13:17:27.612Z,9.57
2018-09-20T13:19:56.091Z,6.50
2018-09-20T13:22:24.597Z,8.87
2018-09-20T13:24:53.069Z,7.87
2018-09-20T13:27:21.693Z,8.60
2018-09-20T13:29:50.138Z,8.77
2018-09-20T13:32:18.682Z,8.60
2018-09-20T13:34:47.885Z,8.83
2018-09-20T13:37:16.545Z,8.67
2018-09-20T13:39:45.120Z,11.77
2018-09-20T13:42:13.669Z,6.83
2018-09-20T13:44:42.145Z,8.30
2018-09-20T13:47:10.800Z,8.33
2018-09-20T13:49:39.297Z,7.53
2018-09-20T13:52:07.821Z,7.27
2018-09-20T13:54:36.325Z,9.93
2018-09-20T13:57:04.899Z,12.03
2018-09-20T13:59:33.538Z,4.63
2018-09-20T14:02:02.043Z,11.50
2018-09-20T14:04:30.563Z,6.23
2018-09-20T14:06:59.207Z,12.27
2018-09-20T14:09:27.679Z,10.10
2018-09-20T14:11:56.393Z,6.57
2018-09-20T14:14:24.974Z,8.83
2018-09-20T14:16:53.645Z,7.33
2018-09-20T14:19:22.169Z,7.73
2018-09-20T14:21:51.258Z,6.53
2018-09-20T14:24:20.122Z,10.10
2018-09-20T14:26:48.977Z,8.23
2018-09-20T14:29:17.680Z,11.47
2018-09-20T14:31:46.659Z,8.83
2018-09-20T14:34:21.977Z,8.47
2018-09-20T14:36:50.973Z,9.17
2018-09-20T14:39:19.516Z,7.73
2018-09-20T14:41:48.115Z,6.67
2018-09-20T14:44:16.882Z,8.70
2018-09-20T14:46:45.371Z,6.93
2018-09-20T14:49:13.955Z,9.93
2018-09-20T14:51:42.578Z,10.33
2018-09-20T14:54:11.119Z,8.23
2018-09-20T14:56:39.617Z,7.27
2018-09-20T14:59:08.486Z,6.67
2018-09-20T15:01:37.245Z,9.70
2018-09-20T15:04:05.885Z,7.50
2018-09-20T15:06:34.580Z,7.60
2018-09-20T15:09:03.275Z,9.87
2018-09-20T15:11:31.836Z,8.40
2018-09-20T15:14:00.337Z,8.10
2018-09-20T15:16:28.986Z,7.87
2018-09-20T15:18:57.680Z,8.60
2018-09-20T15:21:26.291Z,8.37
2018-09-20T15:23:55.169Z,12.00
2018-09-20T15:26:23.885Z,8.17
2018-09-20T15:28:52.623Z,8.13
2018-09-20T15:31:21.270Z,6.57
2018-09-20T15:33:50.017Z,5.93
2018-09-20T15:36:18.604Z,6.97
2018-09-20T15:38:47.221Z,5.80
2018-09-20T15:41:15.991Z,8.17
2018-09-20T15:43:44.548Z,6.93
2018-09-20T15:46:13.322Z,5.97
2018-09-20T15:48:41.794Z,5.27
2018-09-20T15:51:10.895Z,8.13
2018-09-20T15:53:39.548Z,7.13
2018-09-20T15:56:08.575Z,7.87
2018-09-20T15:58:37.289Z,4.13
2018-09-20T16:01:05.878Z,7.07
2018-09-20T16:03:34.486Z,6.97
2018-09-20T16:06:03.069Z,10.30
2018-09-20T16:08:31.753Z,4.33
2018-09-20T16:24:00.055Z,6.27
2018-09-20T16:26:29.006Z,6.43
2018-09-20T16:29:14.244Z,7.53
2018-09-20T16:33:59.872Z,7.33
2018-09-20T16:36:46.344Z,4.77
2018-09-20T16:39:19.535Z,6.30
2018-09-20T16:41:51.030Z,13.60
2018-09-20T16:44:19.522Z,5.33
2018-09-20T16:46:48.192Z,7.33
2018-09-20T16:49:16.812Z,6.23
2018-09-20T16:51:45.504Z,4.83
2018-09-20T16:54:14.365Z,5.63
2018-09-20T16:56:42.872Z,6.43
2018-09-20T16:59:11.579Z,5.87
2018-09-20T17:01:40.118Z,8.17
2018-09-20T17:04:09.800Z,5.70
2018-09-20T17:06:38.431Z,7.07
2018-09-20T17:09:08.597Z,4.77
2018-09-20T17:11:40.409Z,6.10
2018-09-20T17:14:08.917Z,6.63
2018-09-20T17:16:37.786Z,5.30
2018-09-20T17:19:06.417Z,5.90
2018-09-20T17:21:35.184Z,4.63
2018-09-20T17:24:04.013Z,5.63
2018-09-20T17:26:32.677Z,6.87
2018-09-20T17:29:01.396Z,6.40
2018-09-20T17:31:30.053Z,7.47
2018-09-20T17:33:58.717Z,7.83
2018-09-20T17:36:28.137Z,6.33
2018-09-20T17:38:57.724Z,9.47
2018-09-20T17:41:30.244Z,9.70
2018-09-20T17:44:01.152Z,6.40
2018-09-20T17:46:29.883Z,6.73
2018-09-20T17:48:58.446Z,6.80
2018-09-20T17:51:27.685Z,9.50
2018-09-20T17:53:57.265Z,9.43
2018-09-20T17:56:26.829Z,9.40
2018-09-20T17:58:56.544Z,5.57
2018-09-20T18:01:25.151Z,6.27
2018-09-20T18:03:53.938Z,9.23
2018-09-20T18:06:22.927Z,7.13
2018-09-20T18:08:51.643Z,5.47
2018-09-20T18:11:20.376Z,7.90
2018-09-20T18:13:48.939Z,7.53
2018-09-20T18:16:17.526Z,5.73
2018-09-20T18:18:46.252Z,8.17
2018-09-20T18:21:14.806Z,12.07
2018-09-20T18:23:43.446Z,6.20
2018-09-20T18:26:12.135Z,12.67
2018-09-20T18:28:40.947Z,8.97
2018-09-20T18:31:09.503Z,7.53
2018-09-20T18:33:38.400Z,11.73
2018-09-20T18:36:07.300Z,8.80
2018-09-20T18:38:36.074Z,6.50
2018-09-20T18:41:05.173Z,8.93
2018-09-20T18:43:33.947Z,10.00
2018-09-20T18:46:02.898Z,8.43
2018-09-20T18:48:32.438Z,8.00
2018-09-20T18:51:01.695Z,6.70
2018-09-20T18:53:33.290Z,10.73
2018-09-20T18:56:02.147Z,12.77
2018-09-20T18:58:31.704Z,6.57
2018-09-20T19:01:00.822Z,6.50
2018-09-20T19:03:29.875Z,9.40
2018-09-20T19:05:58.525Z,8.90
2018-09-20T19:08:27.085Z,7.50
2018-09-20T19:10:55.692Z,6.83
2018-09-20T19:13:24.185Z,7.60
2018-09-20T19:15:53.257Z,6.13
2018-09-20T19:18:21.791Z,5.13
2018-09-20T19:20:50.487Z,7.07
2018-09-20T19:23:19.169Z,6.07
2018-09-20T19:25:47.964Z,9.37
2018-09-20T19:28:16.646Z,8.50
2018-09-20T19:30:45.240Z,6.83
2018-09-20T19:33:13.718Z,6.77
2018-09-20T19:35:42.189Z,7.17
2018-09-20T19:38:10.877Z,13.27
2018-09-20T19:40:40.247Z,7.53
2018-09-20T19:43:09.215Z,6.63
2018-09-20T19:45:37.826Z,9.03
2018-09-20T19:48:06.353Z,6.43
2018-09-20T19:50:34.985Z,8.67
2018-09-20T19:53:03.602Z,6.77
2018-09-20T19:55:32.144Z,10.73
2018-09-20T19:58:00.792Z,9.93
2018-09-20T20:00:29.652Z,6.00
2018-09-20T20:02:58.509Z,6.07
2018-09-20T20:05:27.302Z,8.30
2018-09-20T20:07:56.042Z,7.70
2018-09-20T20:10:24.695Z,5.83
2018-09-20T20:12:53.293Z,9.30
2018-09-20T20:15:21.781Z,7.27
2018-09-20T20:17:50.361Z,8.23
2018-09-20T20:20:19.013Z,6.10
2018-09-20T20:22:47.546Z,6.40
2018-09-20T20:25:16.059Z,8.10
2018-09-20T20:27:44.581Z,7.47
2018-09-20T20:30:13.212Z,8.43
2018-09-20T20:32:42.031Z,8.07
2018-09-20T20:35:10.872Z,10.13
2018-09-20T20:37:39.706Z,9.93
2018-09-20T20:40:08.644Z,9.67
2018-09-20T20:42:37.152Z,10.30
2018-09-20T20:45:06.008Z,7.23
2018-09-20T20:47:34.674Z,9.83
2018-09-20T20:50:03.506Z,8.27
2018-09-20T20:52:32.158Z,4.40
2018-09-20T20:55:00.855Z,8.47
2018-09-20T20:57:29.648Z,7.27
2018-09-20T20:59:58.287Z,8.57
2018-09-20T21:02:27.302Z,7.67
2018-09-20T21:04:55.944Z,10.27
2018-09-20T21:07:24.441Z,9.13
2018-09-20T21:09:53.016Z,6.97
2018-09-20T21:12:22.075Z,9.17
2018-09-20T21:14:50.787Z,6.80
2018-09-20T21:17:19.617Z,14.07
2018-09-20T21:19:49.632Z,9.40
2018-09-20T21:22:18.316Z,8.13
2018-09-20T21:24:46.909Z,8.70
2018-09-20T21:27:15.784Z,8.17
2018-09-20T21:29:44.301Z,7.90
2018-09-20T21:32:13.049Z,6.97
2018-09-20T21:34:42.124Z,10.00
2018-09-20T21:37:10.732Z,10.63
2018-09-20T21:39:39.807Z,5.40
2018-09-20T21:42:08.484Z,9.57
2018-09-20T21:44:37.146Z,10.93
2018-09-20T21:47:06.210Z,8.77
2018-09-20T21:49:34.950Z,8.43
2018-09-20T21:52:04.129Z,5.80
2018-09-20T21:54:33.071Z,8.57
2018-09-20T21:57:01.910Z,9.77
2018-09-20T21:59:30.812Z,6.80
2018-09-20T22:02:03.425Z,10.00
2018-09-20T22:04:33.148Z,8.90
2018-09-20T22:07:01.927Z,12.13
2018-09-20T22:09:31.320Z,9.10
2018-09-20T22:11:59.801Z,5.33
2018-09-20T22:14:28.482Z,7.80
2018-09-20T22:16:57.031Z,7.43
2018-09-20T22:19:25.508Z,5.47
2018-09-20T22:21:54.144Z,8.13
2018-09-20T22:24:22.681Z,4.63
2018-09-20T22:26:51.276Z,7.70
2018-09-20T22:29:19.826Z,8.73
2018-09-20T22:31:51.395Z,7.37
2018-09-20T22:34:20.100Z,6.10
2018-09-20T22:36:48.673Z,6.00
2018-09-20T22:39:17.439Z,8.03
2018-09-20T22:41:46.172Z,5.87
2018-09-20T22:44:14.802Z,7.57
2018-09-20T22:46:43.667Z,5.23
2018-09-20T22:49:12.283Z,5.77
2018-09-20T22:51:40.730Z,7.27
2018-09-20T22:54:09.331Z,9.07
2018-09-20T22:56:37.843Z,8.20
2018-09-20T22:59:06.430Z,5.50
2018-09-20T23:01:35.027Z,7.10
2018-09-20T23:04:03.544Z,4.27
2018-09-20T23:06:32.109Z,11.37
2018-09-20T23:09:00.670Z,5.13
2018-09-20T23:11:29.348Z,5.90
2018-09-20T23:13:58.249Z,8.87
2018-09-20T23:16:26.937Z,9.23
2018-09-20T23:18:55.526Z,6.60
2018-09-20T23:21:24.186Z,8.43
2018-09-20T23:23:52.624Z,9.40
2018-09-20T23:26:21.348Z,8.93
2018-09-20T23:28:50.067Z,7.00
2018-09-20T23:31:18.756Z,9.27
2018-09-20T23:33:47.748Z,10.00
2018-09-20T23:36:16.344Z,8.27
2018-09-20T23:38:44.880Z,5.97
2018-09-20T23:41:13.329Z,7.43
2018-09-20T23:43:41.817Z,6.13
2018-09-20T23:46:10.364Z,6.07
2018-09-20T23:48:38.929Z,6.50
2018-09-20T23:51:07.707Z,7.37
2018-09-20T23:53:36.474Z,5.23
2018-09-20T23:56:05.465Z,6.13
2018-09-20T23:58:33.972Z,6.43
